createdAt,value
2024-03-05T00:00:14.673Z,20.90
2024-03-05T00:02:42.774Z,20.80
2024-03-05T00:05:10.454Z,19.80
2024-03-05T00:07:37.150Z,20.47
2024-03-05T00:10:04.553Z,20.23
2024-03-05T00:12:32.281Z,19.27
2024-03-05T00:14:59.169Z,18.20
2024-03-05T00:17:26.001Z,18.60
2024-03-05T00:19:53.590Z,18.00
2024-03-05T00:22:21.115Z,18.57
2024-03-05T00:24:47.812Z,18.07
2024-03-05T00:27:15.156Z,19.53
2024-03-05T00:29:42.248Z,18.63
2024-03-05T00:32:08.982Z,18.30
2024-03-05T00:34:35.847Z,19.43
2024-03-05T00:37:02.501Z,18.50
2024-03-05T00:39:29.187Z,18.77
2024-03-05T00:41:55.884Z,18.17
2024-03-05T00:44:22.643Z,18.83
2024-03-05T00:46:49.173Z,17.30
2024-03-05T00:49:16.284Z,19.13
2024-03-05T00:51:42.988Z,17.73
2024-03-05T00:54:11.116Z,17.70
2024-03-05T00:56:38.419Z,18.87
2024-03-05T00:59:05.400Z,19.30
2024-03-05T01:01:32.106Z,19.67
2024-03-05T01:03:59.397Z,19.17
2024-03-05T01:06:26.074Z,18.57
2024-03-05T01:08:52.782Z,19.67
2024-03-05T01:11:19.349Z,19.73
2024-03-05T01:13:46.084Z,18.97
2024-03-05T01:16:12.767Z,18.90
2024-03-05T01:18:39.397Z,17.97
2024-03-05T01:21:08.934Z,19.93
2024-03-05T01:23:35.773Z,18.27
2024-03-05T01:26:04.155Z,19.37
2024-03-05T01:28:31.203Z,19.37
2024-03-05T01:31:00.416Z,19.13
2024-03-05T01:33:27.472Z,19.90
2024-03-05T01:35:54.249Z,19.57
2024-03-05T01:38:22.026Z,20.23
2024-03-05T01:40:48.816Z,20.07
2024-03-05T01:43:16.429Z,20.17
2024-03-05T01:45:43.948Z,19.73
2024-03-05T01:48:13.099Z,19.03
2024-03-05T01:50:40.697Z,18.50
2024-03-05T01:53:10.748Z,19.90
2024-03-05T01:55:40.133Z,20.73
2024-03-05T01:58:09.762Z,18.37
2024-03-05T02:00:37.813Z,20.17
2024-03-05T02:03:06.234Z,20.10
2024-03-05T02:05:33.930Z,18.70
2024-03-05T02:08:03.216Z,19.03
2024-03-05T02:10:30.791Z,18.33
2024-03-05T02:12:58.373Z,19.30
2024-03-05T02:15:25.187Z,19.30
2024-03-05T02:17:52.084Z,18.60
2024-03-05T02:20:18.769Z,19.07
2024-03-05T02:22:47.577Z,18.17
2024-03-05T02:25:17.668Z,18.53
2024-03-05T02:27:46.613Z,18.13
2024-03-05T02:30:16.273Z,19.57
2024-03-05T02:32:44.054Z,18.73
2024-03-05T02:35:12.113Z,18.37
2024-03-05T02:37:39.997Z,19.50
2024-03-05T02:40:11.090Z,17.70
2024-03-05T02:42:38.211Z,18.70
2024-03-05T02:45:08.542Z,18.40
2024-03-05T02:47:37.360Z,18.53
2024-03-05T02:50:04.928Z,18.07
2024-03-05T02:52:32.399Z,19.67
2024-03-05T02:54:59.258Z,17.90
2024-03-05T02:57:26.004Z,17.17
2024-03-05T02:59:52.873Z,18.03
2024-03-05T03:02:21.368Z,17.57
2024-03-05T03:04:48.888Z,18.53
2024-03-05T03:07:15.448Z,17.33
2024-03-05T03:09:46.312Z,17.67
2024-03-05T03:12:12.924Z,18.13
2024-03-05T03:14:45.283Z,18.13
2024-03-05T03:17:12.395Z,17.93
2024-03-05T03:19:39.227Z,18.77
2024-03-05T03:22:06.144Z,17.40
2024-03-05T03:24:32.860Z,18.67
2024-03-05T03:26:59.914Z,18.53
2024-03-05T03:29:27.831Z,18.23
2024-03-05T03:31:56.381Z,18.50
2024-03-05T03:34:23.581Z,18.00
2024-03-05T03:36:50.130Z,17.57
2024-03-05T03:39:24.818Z,17.90
2024-03-05T03:41:56.144Z,18.20
2024-03-05T03:44:23.765Z,17.13
2024-03-05T03:46:51.755Z,18.77
2024-03-05T03:49:26.288Z,19.13
2024-03-05T03:51:55.786Z,18.27
2024-03-05T03:54:22.862Z,18.17
2024-03-05T03:56:52.787Z,17.93
2024-03-05T03:59:21.080Z,17.07
2024-03-05T04:01:49.186Z,17.47
2024-03-05T04:04:15.838Z,16.93
2024-03-05T04:06:43.651Z,17.13
2024-03-05T04:09:10.383Z,17.17
2024-03-05T04:11:40.204Z,16.83
2024-03-05T04:14:06.858Z,17.87
2024-03-05T04:16:33.533Z,15.43
2024-03-05T04:19:00.213Z,17.23
2024-03-05T04:21:27.145Z,18.00
2024-03-05T04:23:54.004Z,17.53
2024-03-05T04:26:28.080Z,18.50
2024-03-05T04:28:56.203Z,16.93
2024-03-05T04:31:35.242Z,18.07
2024-03-05T04:34:08.628Z,17.40
2024-03-05T04:36:38.467Z,17.17
2024-03-05T04:39:07.487Z,17.47
2024-03-05T04:41:34.180Z,20.87
2024-03-05T04:44:00.809Z,19.53
2024-03-05T04:46:27.590Z,18.80
2024-03-05T04:48:55.393Z,18.23
2024-03-05T04:51:22.025Z,17.47
2024-03-05T04:53:48.559Z,18.30
2024-03-05T04:56:15.191Z,18.20
2024-03-05T04:58:41.789Z,18.33
2024-03-05T05:01:08.385Z,19.77
2024-03-05T05:03:35.119Z,16.93
2024-03-05T05:06:01.850Z,18.83
2024-03-05T05:08:28.414Z,19.93
2024-03-05T05:10:55.266Z,20.10
2024-03-05T05:13:21.923Z,24.47
2024-03-05T05:15:50.234Z,21.53
2024-03-05T05:18:16.852Z,21.90
2024-03-05T05:20:44.342Z,22.27
2024-03-05T05:23:11.010Z,22.63
2024-03-05T05:25:38.560Z,24.30
2024-03-05T05:28:06.573Z,24.27
2024-03-05T05:30:33.793Z,24.67
2024-03-05T05:33:00.476Z,23.23
2024-03-05T05:35:27.267Z,23.73
2024-03-05T05:37:54.021Z,24.17
2024-03-05T05:40:21.933Z,24.93
2024-03-05T05:42:50.512Z,24.57
2024-03-05T05:45:17.325Z,25.13
2024-03-05T05:47:52.814Z,20.67
2024-03-05T05:50:20.933Z,19.23
2024-03-05T05:52:55.723Z,21.07
2024-03-05T05:55:26.112Z,20.80
2024-03-05T05:57:53.961Z,22.40
2024-03-05T06:00:37.318Z,26.13
2024-03-05T06:03:12.251Z,26.27
2024-03-05T06:05:39.939Z,25.50
2024-03-05T06:08:13.562Z,25.87
2024-03-05T06:10:43.123Z,26.03
2024-03-05T06:13:10.510Z,26.00
2024-03-05T06:15:39.603Z,25.73
2024-03-05T06:18:07.393Z,24.07
2024-03-05T06:20:34.277Z,25.57
2024-03-05T06:23:02.269Z,25.60
2024-03-05T06:25:29.127Z,25.37
2024-03-05T06:27:55.926Z,24.33
2024-03-05T06:30:24.005Z,24.47
2024-03-05T06:32:52.640Z,23.63
2024-03-05T06:35:23.644Z,24.77
2024-03-05T06:37:51.581Z,24.23
2024-03-05T06:40:24.835Z,23.13
2024-03-05T06:43:05.796Z,23.73
2024-03-05T06:45:35.527Z,24.33
2024-03-05T06:50:35.709Z,23.40
2024-03-05T06:53:21.269Z,23.47
2024-03-05T06:56:06.585Z,23.07
2024-03-05T06:58:35.321Z,23.10
2024-03-05T07:01:08.152Z,24.50
2024-03-05T07:03:36.163Z,24.87
2024-03-05T07:06:09.584Z,23.30
2024-03-05T07:08:39.761Z,23.50
2024-03-05T07:11:17.324Z,23.00
2024-03-05T07:13:48.473Z,23.53
2024-03-05T07:16:19.569Z,23.10
2024-03-05T07:18:49.667Z,22.83
2024-03-05T07:21:23.635Z,23.10
2024-03-05T07:23:51.986Z,23.30
2024-03-05T07:26:19.614Z,22.30
2024-03-05T07:28:46.633Z,21.63
2024-03-05T07:31:15.368Z,21.67
2024-03-05T07:33:42.747Z,21.20
2024-03-05T07:36:09.583Z,22.23
2024-03-05T07:38:36.209Z,21.97
2024-03-05T07:41:11.293Z,21.87
2024-03-05T07:43:44.659Z,20.00
2024-03-05T07:46:11.643Z,19.23
2024-03-05T07:48:38.454Z,20.47
2024-03-05T07:51:05.300Z,19.73
2024-03-05T07:53:31.858Z,20.40
2024-03-05T07:55:58.891Z,19.87
2024-03-05T07:58:25.608Z,20.23
2024-03-05T08:00:52.564Z,21.13
2024-03-05T08:03:19.184Z,21.23
2024-03-05T08:05:46.036Z,19.57
2024-03-05T08:08:12.744Z,19.17
2024-03-05T08:10:39.380Z,19.97
2024-03-05T08:13:06.708Z,21.40
2024-03-05T08:15:33.481Z,20.10
2024-03-05T08:18:00.143Z,21.47
2024-03-05T08:20:27.792Z,19.43
2024-03-05T08:22:56.725Z,21.77
2024-03-05T08:25:24.846Z,20.60
2024-03-05T08:27:58.082Z,19.90
2024-03-05T08:30:32.773Z,20.47
2024-03-05T08:33:01.572Z,20.60
2024-03-05T08:35:30.802Z,20.87
2024-03-05T08:38:00.260Z,20.63
2024-03-05T08:40:28.798Z,20.43
2024-03-05T08:42:56.469Z,19.43
2024-03-05T08:45:25.080Z,19.97
2024-03-05T08:47:53.388Z,19.80
2024-03-05T08:50:20.607Z,19.63
2024-03-05T08:52:47.885Z,20.40
2024-03-05T08:55:16.469Z,21.20
2024-03-05T08:57:44.419Z,23.37
2024-03-05T09:00:26.870Z,24.20
2024-03-05T09:03:02.681Z,22.07
2024-03-05T09:05:29.234Z,22.40
2024-03-05T09:07:56.040Z,20.00
2024-03-05T09:10:22.839Z,20.53
2024-03-05T09:12:49.475Z,21.10
2024-03-05T09:15:17.441Z,19.93
2024-03-05T09:17:44.376Z,19.60
2024-03-05T09:20:17.617Z,19.23
2024-03-05T09:22:48.745Z,17.80
2024-03-05T09:25:16.648Z,18.20
2024-03-05T09:27:44.037Z,17.97
2024-03-05T09:30:15.125Z,18.80
2024-03-05T09:32:43.211Z,17.53
2024-03-05T09:35:11.108Z,17.40
2024-03-05T09:37:38.394Z,17.70
2024-03-05T09:40:17.073Z,17.10
2024-03-05T09:42:44.525Z,16.90
2024-03-05T09:45:15.962Z,16.47
2024-03-05T09:47:44.238Z,15.17
2024-03-05T09:50:14.734Z,14.53
2024-03-05T09:52:42.358Z,14.57
2024-03-05T09:55:10.090Z,14.40
2024-03-05T09:57:40.395Z,14.50
2024-03-05T10:00:08.367Z,13.90
2024-03-05T10:02:39.878Z,13.40
2024-03-05T10:05:10.682Z,12.37
2024-03-05T10:07:37.915Z,12.60
2024-03-05T10:10:12.554Z,10.50
2024-03-05T10:12:40.793Z,9.80
2024-03-05T10:15:24.585Z,8.90
2024-03-05T10:17:54.166Z,8.40
2024-03-05T10:20:35.406Z,7.47
2024-03-05T10:23:04.940Z,6.90
2024-03-05T10:25:34.729Z,6.97
2024-03-05T10:28:03.258Z,7.03
2024-03-05T10:30:36.000Z,6.50
2024-03-05T10:33:08.935Z,6.63
2024-03-05T10:35:38.028Z,6.20
2024-03-05T10:38:10.306Z,5.87
2024-03-05T10:40:38.177Z,6.20
2024-03-05T10:43:06.978Z,5.53
2024-03-05T10:45:36.308Z,5.83
2024-03-05T10:48:03.286Z,5.33
2024-03-05T10:50:30.152Z,5.50
2024-03-05T10:52:58.326Z,5.43
2024-03-05T10:55:26.004Z,5.13
2024-03-05T10:58:12.806Z,5.60
2024-03-05T11:00:41.487Z,4.10
2024-03-05T11:03:12.432Z,3.73
2024-03-05T11:05:50.783Z,3.37
2024-03-05T11:08:22.263Z,2.70
2024-03-05T11:10:52.869Z,4.63
2024-03-05T11:13:20.994Z,2.97
2024-03-05T11:15:50.397Z,2.80
2024-03-05T11:18:35.366Z,2.60
2024-03-05T11:21:06.063Z,2.63
2024-03-05T11:23:34.042Z,3.00
2024-03-05T11:26:05.386Z,2.80
2024-03-05T11:28:32.708Z,2.20
2024-03-05T11:31:16.083Z,2.70
2024-03-05T11:34:13.081Z,2.90
2024-03-05T11:36:40.390Z,3.07
2024-03-05T11:39:08.261Z,2.80
2024-03-05T11:41:45.460Z,2.50
2024-03-05T11:44:33.417Z,2.27
2024-03-05T11:47:00.259Z,2.30
2024-03-05T11:49:26.956Z,3.43
2024-03-05T11:51:53.843Z,2.40
2024-03-05T11:54:24.881Z,2.60
2024-03-05T12:01:03.497Z,2.50
2024-03-05T12:03:31.193Z,2.30
2024-03-05T12:05:57.773Z,2.20
2024-03-05T12:08:27.335Z,2.13
2024-03-05T12:11:01.920Z,2.47
2024-03-05T12:13:28.722Z,2.50
2024-03-05T12:15:55.320Z,2.90
2024-03-05T12:18:22.250Z,2.97
2024-03-05T12:20:49.175Z,3.10
2024-03-05T12:23:39.948Z,3.00
2024-03-05T12:26:03.356Z,3.13
2024-03-05T12:28:32.163Z,3.00
2024-03-05T12:30:59.218Z,3.73
2024-03-05T12:33:28.203Z,3.60
2024-03-05T12:35:55.073Z,4.03
2024-03-05T12:38:23.989Z,4.30
2024-03-05T12:41:00.683Z,4.30
2024-03-05T12:43:30.090Z,4.17
2024-03-05T12:46:03.588Z,4.10
2024-03-05T12:48:33.811Z,4.00
2024-03-05T12:51:01.079Z,4.77
2024-03-05T12:53:27.709Z,4.23
2024-03-05T12:56:02.498Z,4.40
2024-03-05T12:58:40.432Z,4.23
2024-03-05T13:01:07.756Z,4.60
2024-03-05T13:03:35.161Z,3.87
2024-03-05T13:06:02.025Z,4.07
2024-03-05T13:08:28.976Z,5.13
2024-03-05T13:10:56.810Z,4.80
2024-03-05T13:13:23.416Z,4.73
2024-03-05T13:15:50.650Z,4.13
2024-03-05T13:18:17.332Z,3.87
2024-03-05T13:20:43.955Z,4.50
2024-03-05T13:23:10.571Z,4.17
2024-03-05T13:25:37.156Z,4.20
2024-03-05T13:28:04.960Z,3.57
2024-03-05T13:30:31.747Z,4.00
2024-03-05T13:33:02.673Z,3.93
2024-03-05T13:35:31.735Z,3.87
2024-03-05T13:37:59.081Z,3.77
2024-03-05T13:40:25.981Z,3.87
2024-03-05T13:42:52.518Z,3.90
2024-03-05T13:45:20.087Z,3.30
2024-03-05T13:47:46.978Z,3.60
2024-03-05T13:50:15.064Z,3.60
2024-03-05T13:52:44.012Z,3.10
2024-03-05T13:55:15.390Z,3.17
2024-03-05T13:57:42.669Z,3.20
2024-03-05T14:00:20.023Z,3.10
2024-03-05T14:02:46.857Z,3.03
2024-03-05T14:05:14.238Z,3.10
2024-03-05T14:07:41.061Z,3.20
2024-03-05T14:10:11.164Z,2.70
2024-03-05T14:12:40.356Z,2.63
2024-03-05T14:15:10.939Z,2.70
2024-03-05T14:17:38.114Z,2.90
2024-03-05T14:20:08.282Z,2.57
2024-03-05T14:25:21.842Z,3.03
2024-03-05T14:27:49.642Z,2.80
2024-03-05T14:30:19.439Z,4.17
2024-03-05T14:32:46.438Z,2.90
2024-03-05T14:35:14.695Z,1.80
2024-03-05T14:37:43.606Z,2.63
2024-03-05T14:40:11.545Z,2.70
2024-03-05T14:42:38.917Z,2.47
2024-03-05T14:45:06.336Z,2.07
2024-03-05T14:47:32.966Z,1.70
2024-03-05T14:49:59.770Z,1.50
2024-03-05T14:52:26.564Z,13.37
2024-03-05T14:54:53.797Z,8.33
2024-03-05T14:57:20.427Z,4.20
2024-03-05T14:59:47.337Z,3.70
2024-03-05T15:02:14.079Z,4.83
2024-03-05T15:04:40.809Z,4.67
2024-03-05T15:07:07.411Z,4.43
2024-03-05T15:09:36.641Z,3.13
2024-03-05T15:12:04.887Z,3.87
2024-03-05T15:14:31.625Z,2.77
2024-03-05T15:17:00.141Z,2.80
2024-03-05T15:19:26.827Z,2.83
2024-03-05T15:21:53.403Z,2.13
2024-03-05T15:24:20.037Z,1.90
2024-03-05T15:26:58.130Z,1.70
2024-03-05T15:29:28.451Z,1.73
2024-03-05T15:31:55.124Z,2.60
2024-03-05T15:34:21.720Z,2.80
2024-03-05T15:36:48.239Z,2.57
2024-03-05T15:39:16.003Z,2.43
2024-03-05T15:41:42.896Z,3.30
2024-03-05T15:44:10.075Z,3.00
2024-03-05T15:46:36.629Z,1.57
2024-03-05T15:49:04.641Z,1.83
2024-03-05T15:51:31.271Z,1.97
2024-03-05T15:53:58.452Z,2.53
2024-03-05T15:56:47.835Z,2.97
2024-03-05T15:59:33.024Z,2.57
2024-03-05T16:01:59.781Z,2.33
2024-03-05T16:04:48.700Z,3.00
2024-03-05T16:07:13.312Z,2.60
2024-03-05T16:09:40.767Z,1.70
2024-03-05T16:12:11.978Z,2.90
2024-03-05T16:14:41.728Z,3.30
2024-03-05T16:17:11.304Z,2.70
2024-03-05T16:19:37.991Z,4.10
2024-03-05T16:22:05.163Z,2.50
2024-03-05T16:24:32.038Z,2.07
2024-03-05T16:26:58.537Z,3.03
2024-03-05T16:29:25.274Z,3.30
2024-03-05T16:31:51.804Z,2.87
2024-03-05T16:34:19.822Z,3.30
2024-03-05T16:36:48.590Z,4.47
2024-03-05T16:39:20.481Z,7.57
2024-03-05T16:41:47.553Z,7.50
2024-03-05T16:44:14.426Z,5.00
2024-03-05T16:46:42.300Z,4.70
2024-03-05T16:49:09.818Z,3.97
2024-03-05T16:51:37.253Z,4.47
2024-03-05T16:54:04.172Z,4.60
2024-03-05T16:56:30.689Z,4.50
2024-03-05T16:58:57.375Z,3.90
2024-03-05T17:01:25.247Z,2.30
2024-03-05T17:03:54.644Z,6.30
2024-03-05T17:06:23.417Z,3.90
2024-03-05T17:08:51.167Z,3.17
2024-03-05T17:11:17.947Z,4.50
2024-03-05T17:13:47.397Z,2.80
2024-03-05T17:16:14.196Z,4.10
2024-03-05T17:18:40.809Z,3.20
2024-03-05T17:21:08.310Z,3.13
2024-03-05T17:23:42.079Z,3.67
2024-03-05T17:26:11.005Z,4.27
2024-03-05T17:28:37.805Z,4.53
2024-03-05T17:31:04.933Z,3.50
2024-03-05T17:33:32.198Z,4.50
2024-03-05T17:35:59.291Z,4.00
2024-03-05T17:38:30.428Z,4.30
2024-03-05T17:40:59.724Z,5.97
2024-03-05T17:43:26.339Z,18.23
2024-03-05T17:45:54.169Z,35.70
2024-03-05T17:48:21.604Z,24.20
2024-03-05T17:50:49.052Z,8.10
2024-03-05T17:53:16.577Z,3.63
2024-03-05T17:55:46.031Z,2.93
2024-03-05T17:58:13.294Z,2.77
2024-03-05T18:00:46.265Z,2.10
2024-03-05T18:03:15.194Z,2.53
2024-03-05T18:05:46.499Z,2.13
2024-03-05T18:08:13.954Z,2.53
2024-03-05T18:10:40.869Z,2.77
2024-03-05T18:13:08.155Z,2.13
2024-03-05T18:15:35.364Z,3.10
2024-03-05T18:18:03.478Z,3.73
2024-03-05T18:20:30.505Z,4.60
2024-03-05T18:23:00.712Z,4.57
2024-03-05T18:25:34.889Z,3.40
2024-03-05T18:28:03.465Z,3.03
2024-03-05T18:30:35.661Z,3.70
2024-03-05T18:33:02.985Z,9.43
2024-03-05T18:35:29.645Z,6.60
2024-03-05T18:37:56.440Z,4.03
2024-03-05T18:40:23.447Z,4.00
2024-03-05T18:42:51.539Z,3.70
2024-03-05T18:45:20.198Z,3.87
2024-03-05T18:47:58.866Z,6.60
2024-03-05T18:50:31.003Z,4.93
2024-03-05T18:52:58.556Z,4.60
2024-03-05T18:55:25.746Z,3.70
2024-03-05T18:57:53.719Z,3.97
2024-03-05T19:00:20.429Z,4.03
2024-03-05T19:02:55.000Z,4.60
2024-03-05T19:05:23.106Z,3.83
2024-03-05T19:07:51.074Z,4.40
2024-03-05T19:10:19.672Z,4.67
2024-03-05T19:12:47.730Z,5.17
2024-03-05T19:15:14.562Z,5.63
2024-03-05T19:17:42.066Z,7.73
2024-03-05T19:20:10.834Z,7.90
2024-03-05T19:22:39.763Z,5.47
2024-03-05T19:25:13.815Z,4.50
2024-03-05T19:27:42.335Z,5.40
2024-03-05T19:30:12.640Z,4.70
2024-03-05T19:32:43.476Z,3.53
2024-03-05T19:35:12.321Z,2.90
2024-03-05T19:37:46.806Z,3.07
2024-03-05T19:40:18.858Z,4.03
2024-03-05T19:42:54.654Z,4.40
2024-03-05T19:45:21.853Z,4.77
2024-03-05T19:47:49.485Z,8.60
2024-03-05T19:50:17.551Z,10.60
2024-03-05T19:52:45.332Z,10.33
2024-03-05T19:55:15.854Z,15.27
2024-03-05T19:57:43.849Z,14.27
2024-03-05T20:00:20.103Z,12.93
2024-03-05T20:02:48.057Z,10.93
2024-03-05T20:05:18.638Z,10.63
2024-03-05T20:07:46.967Z,8.13
2024-03-05T20:10:13.906Z,6.53
2024-03-05T20:12:41.105Z,11.40
2024-03-05T20:15:10.150Z,9.63
2024-03-05T20:17:40.344Z,9.73
2024-03-05T20:20:10.379Z,9.33
2024-03-05T20:22:39.292Z,10.63
2024-03-05T20:25:07.951Z,17.17
2024-03-05T20:27:35.083Z,15.60
2024-03-05T20:30:02.327Z,9.93
2024-03-05T20:32:32.359Z,11.17
2024-03-05T20:35:00.482Z,10.33
2024-03-05T20:37:28.465Z,11.50
2024-03-05T20:39:57.278Z,9.83
2024-03-05T20:42:23.952Z,8.70
2024-03-05T20:44:50.593Z,8.00
2024-03-05T20:47:17.553Z,8.10
2024-03-05T20:49:44.389Z,10.17
2024-03-05T20:52:11.072Z,13.67
2024-03-05T20:54:37.596Z,14.40
2024-03-05T20:57:04.298Z,12.23
2024-03-05T20:59:33.628Z,11.73
2024-03-05T21:02:10.002Z,13.40
2024-03-05T21:04:37.508Z,14.83
2024-03-05T21:07:07.047Z,15.50
2024-03-05T21:09:34.731Z,15.17
2024-03-05T21:12:01.576Z,22.40
2024-03-05T21:14:28.266Z,28.30
2024-03-05T21:16:54.863Z,23.23
2024-03-05T21:19:23.067Z,22.43
2024-03-05T21:21:50.392Z,27.73
2024-03-05T21:24:17.100Z,25.80
2024-03-05T21:26:54.653Z,21.43
2024-03-05T21:29:30.244Z,15.90
2024-03-05T21:31:57.026Z,14.07
2024-03-05T21:34:23.584Z,11.90
2024-03-05T21:36:50.138Z,9.60
2024-03-05T21:39:16.911Z,8.37
2024-03-05T21:41:45.416Z,9.13
2024-03-05T21:44:13.351Z,9.90
2024-03-05T21:46:44.084Z,10.47
2024-03-05T21:49:10.808Z,10.63
2024-03-05T21:51:37.579Z,13.30
2024-03-05T21:54:04.188Z,13.50
2024-03-05T21:56:30.706Z,12.20
2024-03-05T21:58:57.363Z,11.07
2024-03-05T22:01:23.999Z,11.20
2024-03-05T22:03:50.771Z,11.83
2024-03-05T22:06:23.829Z,10.50
2024-03-05T22:08:51.979Z,10.53
2024-03-05T22:11:18.761Z,12.00
2024-03-05T22:13:45.646Z,25.33
2024-03-05T22:16:12.934Z,8.07
2024-03-05T22:18:40.280Z,9.50
2024-03-05T22:21:07.824Z,8.83
2024-03-05T22:23:34.835Z,6.87
2024-03-05T22:26:01.531Z,7.93
2024-03-05T22:28:28.212Z,8.50
2024-03-05T22:30:55.823Z,9.47
2024-03-05T22:33:23.460Z,9.17
2024-03-05T22:35:50.230Z,8.60
2024-03-05T22:38:16.879Z,10.60
2024-03-05T22:40:43.417Z,9.77
2024-03-05T22:43:11.556Z,10.60
2024-03-05T22:45:38.193Z,9.47
2024-03-05T22:48:05.278Z,10.10
2024-03-05T22:50:31.874Z,9.40
2024-03-05T22:52:58.475Z,8.60
2024-03-05T22:55:25.949Z,7.83
2024-03-05T22:57:52.572Z,8.70
2024-03-05T23:00:35.011Z,8.07
2024-03-05T23:03:04.178Z,7.87
2024-03-05T23:05:32.019Z,7.33
2024-03-05T23:08:00.336Z,7.07
2024-03-05T23:10:30.062Z,7.87
2024-03-05T23:12:57.262Z,7.83
2024-03-05T23:15:24.538Z,8.37
2024-03-05T23:17:51.782Z,8.60
2024-03-05T23:20:19.167Z,8.97
2024-03-05T23:22:46.788Z,10.50
2024-03-05T23:25:13.487Z,9.43
2024-03-05T23:27:44.333Z,9.00
2024-03-05T23:30:11.528Z,9.90
2024-03-05T23:32:38.138Z,8.50
2024-03-05T23:35:06.492Z,8.70
2024-03-05T23:37:33.797Z,8.37
2024-03-05T23:40:00.540Z,8.57
2024-03-05T23:42:27.740Z,8.53
2024-03-05T23:44:54.277Z,9.43
2024-03-05T23:47:20.832Z,9.70
2024-03-05T23:49:47.484Z,9.10
2024-03-05T23:52:14.144Z,9.03
2024-03-05T23:54:42.502Z,9.80
2024-03-05T23:57:09.907Z,8.50
2024-03-05T23:59:40.288Z,9.13
